createdAt,value
2018-10-09T00:00:04.435Z,7.77777777778
2018-10-09T00:00:16.820Z,7.77777777778
2018-10-09T00:00:29.278Z,7.77777777778
2018-10-09T00:00:42.082Z,7.77777777778
2018-10-09T00:00:55.994Z,7.77777777778
2018-10-09T00:01:08.549Z,7.77777777778
2018-10-09T00:01:20.946Z,7.77777777778
2018-10-09T00:01:33.362Z,7.77777777778
2018-10-09T00:01:45.796Z,7.77777777778
2018-10-09T00:01:58.186Z,7.72222222222
2018-10-09T00:02:10.577Z,7.72222222222
2018-10-09T00:02:22.975Z,7.72222222222
2018-10-09T00:02:35.383Z,7.77777777778
2018-10-09T00:02:47.780Z,7.77777777778
2018-10-09T00:03:00.187Z,7.72222222222
2018-10-09T00:03:12.575Z,7.72222222222
2018-10-09T00:03:24.973Z,7.72222222222
2018-10-09T00:03:37.355Z,7.72222222222
2018-10-09T00:03:49.726Z,7.77777777778
2018-10-09T00:04:02.202Z,7.72222222222
2018-10-09T00:04:14.869Z,7.72222222222
2018-10-09T00:04:27.243Z,7.72222222222
2018-10-09T00:04:39.642Z,7.72222222222
2018-10-09T00:04:52.192Z,7.72222222222
2018-10-09T00:05:04.586Z,7.72222222222
2018-10-09T00:05:16.966Z,7.72222222222
2018-10-09T00:05:29.425Z,7.72222222222
2018-10-09T00:05:41.929Z,7.66666666667
2018-10-09T00:05:54.325Z,7.72222222222
2018-10-09T00:06:06.718Z,7.66666666667
2018-10-09T00:06:19.136Z,7.72222222222
2018-10-09T00:06:31.549Z,7.72222222222
2018-10-09T00:06:43.987Z,7.66666666667
2018-10-09T00:06:56.379Z,7.72222222222
2018-10-09T00:07:08.758Z,7.66666666667
2018-10-09T00:07:21.147Z,7.66666666667
2018-10-09T00:07:33.574Z,7.66666666667
2018-10-09T00:07:46.154Z,7.66666666667
2018-10-09T00:07:58.553Z,7.66666666667
2018-10-09T00:08:10.989Z,7.66666666667
2018-10-09T00:08:23.396Z,7.61111111111
2018-10-09T00:08:35.769Z,7.66666666667
2018-10-09T00:08:48.132Z,7.66666666667
2018-10-09T00:09:00.502Z,7.66666666667
2018-10-09T00:09:12.882Z,7.66666666667
2018-10-09T00:09:25.260Z,7.66666666667
2018-10-09T00:09:37.641Z,7.66666666667
2018-10-09T00:09:50.037Z,7.66666666667
2018-10-09T00:10:02.435Z,7.66666666667
2018-10-09T00:10:14.905Z,7.66666666667
2018-10-09T00:10:27.282Z,7.66666666667
2018-10-09T00:10:39.674Z,7.66666666667
2018-10-09T00:10:52.057Z,7.66666666667
2018-10-09T00:11:04.438Z,7.66666666667
2018-10-09T00:11:16.827Z,7.66666666667
2018-10-09T00:11:29.223Z,7.66666666667
2018-10-09T00:11:41.603Z,7.66666666667
2018-10-09T00:11:54.007Z,7.66666666667
2018-10-09T00:12:06.388Z,7.61111111111
2018-10-09T00:12:18.771Z,7.66666666667
2018-10-09T00:12:31.158Z,7.66666666667
2018-10-09T00:12:43.719Z,7.61111111111
2018-10-09T00:12:56.165Z,7.66666666667
2018-10-09T00:13:08.540Z,7.66666666667
2018-10-09T00:13:20.943Z,7.61111111111
2018-10-09T00:13:33.339Z,7.61111111111
2018-10-09T00:13:45.800Z,7.61111111111
2018-10-09T00:13:58.240Z,7.66666666667
2018-10-09T00:14:10.637Z,7.61111111111
2018-10-09T00:14:23.030Z,7.66666666667
2018-10-09T00:14:35.404Z,7.61111111111
2018-10-09T00:14:47.820Z,7.66666666667
2018-10-09T00:15:00.378Z,7.61111111111
2018-10-09T00:15:12.783Z,7.61111111111
2018-10-09T00:15:25.236Z,7.61111111111
2018-10-09T00:15:37.634Z,7.61111111111
2018-10-09T00:15:50.028Z,7.61111111111
2018-10-09T00:16:02.413Z,7.61111111111
2018-10-09T00:16:14.800Z,7.61111111111
2018-10-09T00:16:27.204Z,7.61111111111
2018-10-09T00:16:39.589Z,7.61111111111
2018-10-09T00:16:51.976Z,7.61111111111
2018-10-09T00:17:04.358Z,7.66666666667
2018-10-09T00:17:17.019Z,7.61111111111
2018-10-09T00:17:29.398Z,7.61111111111
2018-10-09T00:17:41.796Z,7.61111111111
2018-10-09T00:17:54.178Z,7.61111111111
2018-10-09T00:18:06.569Z,7.61111111111
2018-10-09T00:18:18.966Z,7.61111111111
2018-10-09T00:18:31.373Z,7.61111111111
2018-10-09T00:18:43.834Z,7.61111111111
2018-10-09T00:18:56.243Z,7.61111111111
2018-10-09T00:19:08.642Z,7.61111111111
2018-10-09T00:19:21.043Z,7.61111111111
2018-10-09T00:19:33.432Z,7.61111111111
2018-10-09T00:19:45.818Z,7.61111111111
2018-10-09T00:19:58.212Z,7.61111111111
2018-10-09T00:20:10.798Z,7.55555555556
2018-10-09T00:20:23.205Z,7.61111111111
2018-10-09T00:20:35.606Z,7.61111111111
2018-10-09T00:20:47.984Z,7.61111111111
2018-10-09T00:21:00.857Z,7.61111111111
2018-10-09T00:21:13.240Z,7.55555555556
2018-10-09T00:21:25.633Z,7.55555555556
2018-10-09T00:21:38.040Z,7.61111111111
2018-10-09T00:21:50.443Z,7.55555555556
2018-10-09T00:22:02.899Z,7.61111111111
2018-10-09T00:22:15.372Z,7.61111111111
2018-10-09T00:22:27.796Z,7.61111111111
2018-10-09T00:22:40.206Z,7.61111111111
2018-10-09T00:22:52.610Z,7.55555555556
2018-10-09T00:23:05.026Z,7.55555555556
2018-10-09T00:23:17.406Z,7.55555555556
2018-10-09T00:23:29.797Z,7.55555555556
2018-10-09T00:23:42.189Z,7.55555555556
2018-10-09T00:23:54.567Z,7.55555555556
2018-10-09T00:24:07.093Z,7.55555555556
2018-10-09T00:24:19.488Z,7.55555555556
2018-10-09T00:24:32.040Z,7.55555555556
2018-10-09T00:24:44.634Z,7.55555555556
2018-10-09T00:24:57.083Z,7.55555555556
2018-10-09T00:25:09.879Z,7.55555555556
2018-10-09T00:25:22.311Z,7.55555555556
2018-10-09T00:25:34.723Z,7.5
2018-10-09T00:25:47.112Z,7.55555555556
2018-10-09T00:25:59.987Z,7.55555555556
2018-10-09T00:26:13.985Z,7.5
2018-10-09T00:26:26.635Z,7.55555555556
2018-10-09T00:26:39.038Z,7.5
2018-10-09T00:26:51.440Z,7.55555555556
2018-10-09T00:27:03.867Z,7.55555555556
2018-10-09T00:27:16.358Z,7.5
2018-10-09T00:27:28.758Z,7.55555555556
2018-10-09T00:27:41.177Z,7.5
2018-10-09T00:27:53.556Z,7.5
2018-10-09T00:28:05.943Z,7.5
2018-10-09T00:28:18.338Z,7.5
2018-10-09T00:28:30.714Z,7.5
2018-10-09T00:28:43.101Z,7.5
2018-10-09T00:28:55.474Z,7.5
2018-10-09T00:29:07.863Z,7.5
2018-10-09T00:29:20.270Z,7.5
2018-10-09T00:29:32.674Z,7.5
2018-10-09T00:29:45.058Z,7.5
2018-10-09T00:29:57.465Z,7.5
2018-10-09T00:30:09.866Z,7.5
2018-10-09T00:30:22.259Z,7.5
2018-10-09T00:30:34.703Z,7.5
2018-10-09T00:30:47.137Z,7.5
2018-10-09T00:30:59.897Z,7.5
2018-10-09T00:31:12.316Z,7.5
2018-10-09T00:31:24.699Z,7.5
2018-10-09T00:31:37.072Z,7.44444444444
2018-10-09T00:31:49.474Z,7.44444444444
2018-10-09T00:32:01.868Z,7.44444444444
2018-10-09T00:32:14.268Z,7.44444444444
2018-10-09T00:32:26.646Z,7.44444444444
2018-10-09T00:32:39.050Z,7.44444444444
2018-10-09T00:32:51.825Z,7.44444444444
2018-10-09T00:33:04.222Z,7.44444444444
2018-10-09T00:33:16.595Z,7.44444444444
2018-10-09T00:33:28.994Z,7.44444444444
2018-10-09T00:33:41.376Z,7.44444444444
2018-10-09T00:33:53.781Z,7.44444444444
2018-10-09T00:34:06.180Z,7.44444444444
2018-10-09T00:34:18.569Z,7.44444444444
2018-10-09T00:34:30.979Z,7.44444444444
2018-10-09T00:34:43.402Z,7.38888888889
2018-10-09T00:34:55.807Z,7.38888888889
2018-10-09T00:35:08.283Z,7.38888888889
2018-10-09T00:35:20.827Z,7.44444444444
2018-10-09T00:35:33.245Z,7.38888888889
2018-10-09T00:35:45.654Z,7.38888888889
2018-10-09T00:35:58.458Z,7.38888888889
2018-10-09T00:36:10.897Z,7.38888888889
2018-10-09T00:36:23.279Z,7.38888888889
2018-10-09T00:36:35.713Z,7.38888888889
2018-10-09T00:36:48.107Z,7.38888888889
2018-10-09T00:37:00.532Z,7.33333333333
2018-10-09T00:37:12.930Z,7.33333333333
2018-10-09T00:37:25.319Z,7.33333333333
2018-10-09T00:37:37.697Z,7.33333333333
2018-10-09T00:37:50.156Z,7.38888888889
2018-10-09T00:38:02.523Z,7.33333333333
2018-10-09T00:38:14.897Z,7.33333333333
2018-10-09T00:38:27.291Z,7.33333333333
2018-10-09T00:38:39.673Z,7.33333333333
2018-10-09T00:38:52.072Z,7.33333333333
2018-10-09T00:39:04.470Z,7.33333333333
2018-10-09T00:39:16.861Z,7.33333333333
2018-10-09T00:39:29.252Z,7.33333333333
2018-10-09T00:39:41.664Z,7.33333333333
2018-10-09T00:39:54.057Z,7.33333333333
2018-10-09T00:40:06.504Z,7.27777777778
2018-10-09T00:40:18.905Z,7.33333333333
2018-10-09T00:40:31.355Z,7.27777777778
2018-10-09T00:40:43.742Z,7.27777777778
2018-10-09T00:40:56.707Z,7.27777777778
2018-10-09T00:41:09.118Z,7.27777777778
2018-10-09T00:41:21.521Z,7.33333333333
2018-10-09T00:41:34.073Z,7.27777777778
2018-10-09T00:41:46.475Z,7.27777777778
2018-10-09T00:41:58.874Z,7.27777777778
2018-10-09T00:42:11.262Z,7.27777777778
2018-10-09T00:42:23.642Z,7.27777777778
2018-10-09T00:42:36.069Z,7.27777777778
2018-10-09T00:42:48.450Z,7.27777777778
2018-10-09T00:43:00.873Z,7.27777777778
2018-10-09T00:43:13.270Z,7.27777777778
2018-10-09T00:43:25.683Z,7.22222222222
2018-10-09T00:43:38.058Z,7.22222222222
2018-10-09T00:43:50.485Z,7.22222222222
2018-10-09T00:44:02.931Z,7.27777777778
2018-10-09T00:44:15.333Z,7.27777777778
2018-10-09T00:44:27.747Z,7.22222222222
2018-10-09T00:44:40.144Z,7.22222222222
2018-10-09T00:44:52.550Z,7.22222222222
2018-10-09T00:45:04.944Z,7.22222222222
2018-10-09T00:45:17.345Z,7.22222222222
2018-10-09T00:45:29.717Z,7.22222222222
2018-10-09T00:45:42.095Z,7.22222222222
2018-10-09T00:45:54.476Z,7.22222222222
2018-10-09T00:46:06.879Z,7.22222222222
2018-10-09T00:46:19.299Z,7.22222222222
2018-10-09T00:46:31.846Z,7.22222222222
2018-10-09T00:46:44.242Z,7.22222222222
2018-10-09T00:46:56.645Z,7.22222222222
2018-10-09T00:47:09.038Z,7.22222222222
2018-10-09T00:47:21.500Z,7.22222222222
2018-10-09T00:47:34.078Z,7.22222222222
2018-10-09T00:47:46.518Z,7.16666666667
2018-10-09T00:47:58.925Z,7.22222222222
2018-10-09T00:48:11.328Z,7.22222222222
2018-10-09T00:48:23.740Z,7.22222222222
2018-10-09T00:48:36.134Z,7.22222222222
2018-10-09T00:48:48.705Z,7.27777777778
2018-10-09T00:49:01.247Z,7.22222222222
2018-10-09T00:49:13.647Z,7.22222222222
2018-10-09T00:49:26.050Z,7.22222222222
2018-10-09T00:49:38.569Z,7.16666666667
2018-10-09T00:49:50.960Z,7.22222222222
2018-10-09T00:50:03.334Z,7.16666666667
2018-10-09T00:50:15.718Z,7.22222222222
2018-10-09T00:50:28.113Z,7.22222222222
2018-10-09T00:50:40.490Z,7.22222222222
2018-10-09T00:50:52.884Z,7.22222222222
2018-10-09T00:51:05.279Z,7.16666666667
2018-10-09T00:51:17.698Z,7.16666666667
2018-10-09T00:51:30.096Z,7.16666666667
2018-10-09T00:51:42.476Z,7.16666666667
2018-10-09T00:51:54.856Z,7.22222222222
2018-10-09T00:52:07.226Z,7.22222222222
2018-10-09T00:52:19.820Z,7.16666666667
2018-10-09T00:52:32.266Z,7.16666666667
2018-10-09T00:52:44.720Z,7.16666666667
2018-10-09T00:52:57.160Z,7.16666666667
2018-10-09T00:53:09.707Z,7.22222222222
2018-10-09T00:53:22.099Z,7.22222222222
2018-10-09T00:53:34.473Z,7.22222222222
2018-10-09T00:53:46.841Z,7.16666666667
2018-10-09T00:53:59.228Z,7.22222222222
2018-10-09T00:54:11.618Z,7.16666666667
2018-10-09T00:54:24.055Z,7.16666666667
2018-10-09T00:54:36.428Z,7.22222222222
2018-10-09T00:54:48.804Z,7.16666666667
2018-10-09T00:55:01.205Z,7.16666666667
2018-10-09T00:55:13.662Z,7.16666666667
2018-10-09T00:55:26.303Z,7.16666666667
2018-10-09T00:55:38.754Z,7.16666666667
2018-10-09T00:55:51.307Z,7.16666666667
2018-10-09T00:56:03.693Z,7.16666666667
2018-10-09T00:56:16.182Z,7.16666666667
2018-10-09T00:56:28.759Z,7.16666666667
2018-10-09T00:56:41.126Z,7.16666666667
2018-10-09T00:56:53.506Z,7.16666666667
2018-10-09T00:57:05.885Z,7.16666666667
2018-10-09T00:57:18.702Z,7.16666666667
2018-10-09T00:57:31.103Z,7.16666666667
2018-10-09T00:57:43.483Z,7.11111111111
2018-10-09T00:57:55.864Z,7.16666666667
2018-10-09T00:58:08.249Z,7.16666666667
2018-10-09T00:58:20.629Z,7.11111111111
2018-10-09T00:58:33.083Z,7.11111111111
2018-10-09T00:58:45.528Z,7.11111111111
2018-10-09T00:58:57.929Z,7.11111111111
2018-10-09T00:59:10.342Z,7.05555555556
2018-10-09T00:59:22.743Z,7.11111111111
2018-10-09T00:59:35.145Z,7.05555555556
2018-10-09T00:59:47.521Z,7.05555555556
2018-10-09T01:00:00.131Z,7.05555555556
2018-10-09T01:00:12.598Z,7.05555555556
2018-10-09T01:00:25.171Z,7.05555555556
2018-10-09T01:00:37.601Z,7.05555555556
2018-10-09T01:00:50.009Z,7.05555555556
2018-10-09T01:01:02.437Z,7
2018-10-09T01:01:14.850Z,7
2018-10-09T01:01:27.265Z,7
2018-10-09T01:01:39.680Z,7
2018-10-09T01:01:52.082Z,7
2018-10-09T01:02:04.482Z,7
2018-10-09T01:02:16.935Z,7
2018-10-09T01:02:29.311Z,7
2018-10-09T01:02:41.714Z,6.94444444444
2018-10-09T01:02:54.178Z,6.94444444444
2018-10-09T01:03:06.573Z,6.94444444444
2018-10-09T01:03:18.961Z,6.94444444444
2018-10-09T01:03:31.371Z,6.94444444444
2018-10-09T01:03:43.760Z,6.94444444444
2018-10-09T01:03:56.280Z,6.88888888889
2018-10-09T01:04:08.835Z,6.94444444444
2018-10-09T01:04:21.240Z,6.94444444444
2018-10-09T01:04:33.629Z,6.88888888889
2018-10-09T01:04:46.009Z,6.88888888889
2018-10-09T01:04:58.396Z,6.88888888889
2018-10-09T01:05:10.789Z,6.88888888889
2018-10-09T01:05:23.222Z,6.88888888889
2018-10-09T01:05:35.631Z,6.88888888889
2018-10-09T01:05:48.157Z,6.83333333333
2018-10-09T01:06:00.538Z,6.83333333333
2018-10-09T01:06:12.921Z,6.83333333333
2018-10-09T01:06:25.316Z,6.83333333333
2018-10-09T01:06:37.707Z,6.83333333333
2018-10-09T01:06:50.103Z,6.83333333333
2018-10-09T01:07:02.541Z,6.83333333333
2018-10-09T01:07:14.932Z,6.83333333333
2018-10-09T01:07:27.338Z,6.83333333333
2018-10-09T01:07:39.728Z,6.77777777778
2018-10-09T01:07:52.108Z,6.77777777778
2018-10-09T01:08:04.528Z,6.77777777778
2018-10-09T01:08:16.892Z,6.77777777778
2018-10-09T01:08:29.474Z,6.77777777778
2018-10-09T01:08:41.860Z,6.77777777778
2018-10-09T01:08:54.243Z,6.77777777778
2018-10-09T01:09:07.249Z,6.77777777778
2018-10-09T01:09:21.023Z,6.72222222222
2018-10-09T01:09:33.466Z,6.72222222222
2018-10-09T01:09:45.932Z,6.72222222222
2018-10-09T01:09:58.304Z,6.72222222222
2018-10-09T01:10:10.749Z,6.72222222222
2018-10-09T01:10:23.147Z,6.72222222222
2018-10-09T01:10:35.526Z,6.72222222222
2018-10-09T01:10:47.911Z,6.72222222222
2018-10-09T01:11:00.323Z,6.72222222222
2018-10-09T01:11:12.790Z,6.72222222222
2018-10-09T01:11:25.176Z,6.72222222222
2018-10-09T01:11:37.574Z,6.72222222222
2018-10-09T01:11:49.962Z,6.66666666667
2018-10-09T01:12:02.372Z,6.66666666667
2018-10-09T01:12:14.774Z,6.72222222222
2018-10-09T01:12:27.204Z,6.66666666667
2018-10-09T01:12:39.801Z,6.66666666667
2018-10-09T01:12:52.191Z,6.66666666667
2018-10-09T01:13:04.609Z,6.66666666667
2018-10-09T01:13:16.997Z,6.66666666667
2018-10-09T01:13:29.404Z,6.66666666667
2018-10-09T01:13:41.794Z,6.66666666667
2018-10-09T01:13:54.173Z,6.66666666667
2018-10-09T01:14:06.587Z,6.66666666667
2018-10-09T01:14:18.985Z,6.66666666667
2018-10-09T01:14:31.410Z,6.66666666667
2018-10-09T01:14:43.815Z,6.66666666667
2018-10-09T01:14:56.392Z,6.66666666667
2018-10-09T01:15:08.797Z,6.66666666667
2018-10-09T01:15:21.196Z,6.66666666667
2018-10-09T01:15:33.588Z,6.66666666667
2018-10-09T01:15:45.995Z,6.66666666667
2018-10-09T01:15:58.449Z,6.66666666667
2018-10-09T01:16:10.884Z,6.66666666667
2018-10-09T01:16:23.669Z,6.66666666667
2018-10-09T01:16:36.061Z,6.66666666667
2018-10-09T01:16:48.441Z,6.66666666667
2018-10-09T01:17:00.840Z,6.66666666667
2018-10-09T01:17:13.276Z,6.66666666667
2018-10-09T01:17:25.684Z,6.66666666667
2018-10-09T01:17:38.074Z,6.66666666667
2018-10-09T01:17:50.468Z,6.66666666667
2018-10-09T01:18:02.873Z,6.66666666667
2018-10-09T01:18:15.248Z,6.66666666667
2018-10-09T01:18:27.618Z,6.66666666667
2018-10-09T01:18:39.996Z,6.66666666667
2018-10-09T01:18:52.396Z,6.66666666667
2018-10-09T01:19:04.796Z,6.66666666667
2018-10-09T01:19:17.212Z,6.66666666667
2018-10-09T01:19:29.622Z,6.66666666667
2018-10-09T01:19:42.018Z,6.66666666667
2018-10-09T01:19:54.384Z,6.66666666667
2018-10-09T01:20:06.894Z,6.66666666667
2018-10-09T01:20:19.275Z,6.66666666667
2018-10-09T01:20:31.659Z,6.66666666667
2018-10-09T01:20:44.055Z,6.66666666667
2018-10-09T01:20:56.941Z,6.66666666667
2018-10-09T01:21:09.332Z,6.66666666667
2018-10-09T01:21:21.752Z,6.72222222222
2018-10-09T01:21:34.147Z,6.66666666667
2018-10-09T01:21:46.548Z,6.66666666667
2018-10-09T01:21:58.991Z,6.66666666667
2018-10-09T01:22:11.382Z,6.66666666667
2018-10-09T01:22:23.764Z,6.66666666667
2018-10-09T01:22:36.180Z,6.72222222222
2018-10-09T01:22:48.576Z,6.66666666667
2018-10-09T01:23:00.984Z,6.72222222222
2018-10-09T01:23:13.399Z,6.66666666667
2018-10-09T01:23:25.807Z,6.66666666667
2018-10-09T01:23:38.225Z,6.66666666667
2018-10-09T01:23:50.612Z,6.66666666667
2018-10-09T01:24:03.004Z,6.66666666667
2018-10-09T01:24:15.522Z,6.66666666667
2018-10-09T01:24:28.031Z,6.72222222222
2018-10-09T01:24:40.412Z,6.66666666667
2018-10-09T01:24:52.980Z,6.66666666667
2018-10-09T01:25:05.392Z,6.66666666667
2018-10-09T01:25:17.827Z,6.66666666667
2018-10-09T01:25:30.218Z,6.66666666667
2018-10-09T01:25:42.790Z,6.66666666667
2018-10-09T01:25:55.864Z,6.66666666667
2018-10-09T01:26:08.243Z,6.66666666667
2018-10-09T01:26:20.621Z,6.66666666667
2018-10-09T01:26:33.013Z,6.66666666667
2018-10-09T01:26:45.439Z,6.66666666667
2018-10-09T01:26:57.817Z,6.66666666667
2018-10-09T01:27:10.220Z,6.66666666667
2018-10-09T01:27:22.611Z,6.66666666667
2018-10-09T01:27:35.019Z,6.66666666667
2018-10-09T01:27:47.398Z,6.66666666667
2018-10-09T01:27:59.785Z,6.66666666667
2018-10-09T01:28:12.196Z,6.66666666667
2018-10-09T01:28:24.581Z,6.61111111111
2018-10-09T01:28:36.977Z,6.61111111111
2018-10-09T01:28:49.344Z,6.61111111111
2018-10-09T01:29:01.727Z,6.61111111111
2018-10-09T01:29:14.136Z,6.66666666667
2018-10-09T01:29:26.676Z,6.61111111111
2018-10-09T01:29:39.096Z,6.61111111111
2018-10-09T01:29:51.504Z,6.61111111111
2018-10-09T01:30:03.928Z,6.61111111111
2018-10-09T01:30:16.322Z,6.61111111111
2018-10-09T01:30:28.760Z,6.61111111111
2018-10-09T01:30:41.143Z,6.61111111111
2018-10-09T01:30:53.645Z,6.61111111111
2018-10-09T01:31:06.035Z,6.61111111111
2018-10-09T01:31:18.452Z,6.61111111111
2018-10-09T01:31:30.845Z,6.61111111111
2018-10-09T01:31:43.232Z,6.61111111111
2018-10-09T01:31:55.621Z,6.61111111111
2018-10-09T01:32:08.018Z,6.61111111111
2018-10-09T01:32:20.397Z,6.61111111111
2018-10-09T01:32:32.786Z,6.55555555556
2018-10-09T01:32:45.554Z,6.61111111111
2018-10-09T01:32:57.955Z,6.55555555556
2018-10-09T01:33:10.351Z,6.61111111111
2018-10-09T01:33:22.762Z,6.55555555556
2018-10-09T01:33:35.174Z,6.55555555556
2018-10-09T01:33:47.598Z,6.61111111111
2018-10-09T01:34:00.015Z,6.55555555556
2018-10-09T01:34:12.447Z,6.55555555556
2018-10-09T01:34:24.873Z,6.55555555556
2018-10-09T01:34:37.292Z,6.55555555556
2018-10-09T01:34:49.700Z,6.55555555556
2018-10-09T01:35:02.079Z,6.61111111111
2018-10-09T01:35:14.460Z,6.55555555556
2018-10-09T01:35:26.870Z,6.55555555556
2018-10-09T01:35:39.246Z,6.5
2018-10-09T01:35:51.887Z,6.55555555556
2018-10-09T01:36:04.287Z,6.55555555556
2018-10-09T01:36:16.659Z,6.5
2018-10-09T01:36:29.107Z,6.55555555556
2018-10-09T01:36:41.483Z,6.55555555556
2018-10-09T01:36:53.889Z,6.55555555556
2018-10-09T01:37:06.282Z,6.5
2018-10-09T01:37:18.722Z,6.5
2018-10-09T01:37:31.124Z,6.5
2018-10-09T01:37:43.765Z,6.5
2018-10-09T01:37:56.156Z,6.5
2018-10-09T01:38:08.555Z,6.5
2018-10-09T01:38:20.957Z,6.5
2018-10-09T01:38:33.352Z,6.5
2018-10-09T01:38:45.755Z,6.44444444444
2018-10-09T01:38:58.153Z,6.5
2018-10-09T01:39:10.524Z,6.5
2018-10-09T01:39:22.910Z,6.5
2018-10-09T01:39:35.327Z,6.5
2018-10-09T01:39:47.913Z,6.55555555556
2018-10-09T01:40:00.333Z,6.5
2018-10-09T01:40:12.781Z,6.5
2018-10-09T01:40:25.246Z,6.5
2018-10-09T01:40:37.662Z,6.5
2018-10-09T01:40:50.046Z,6.55555555556
2018-10-09T01:41:02.442Z,6.5
2018-10-09T01:41:14.837Z,6.5
2018-10-09T01:41:27.210Z,6.5
2018-10-09T01:41:39.649Z,6.55555555556
2018-10-09T01:41:52.035Z,6.5
2018-10-09T01:42:04.435Z,6.55555555556
2018-10-09T01:42:16.811Z,6.5
2018-10-09T01:42:29.200Z,6.55555555556
2018-10-09T01:42:41.584Z,6.5
2018-10-09T01:42:53.970Z,6.55555555556
2018-10-09T01:43:06.353Z,6.55555555556
2018-10-09T01:43:18.735Z,6.55555555556
2018-10-09T01:43:31.172Z,6.55555555556
2018-10-09T01:43:43.821Z,6.55555555556
2018-10-09T01:43:56.239Z,6.55555555556
2018-10-09T01:44:08.689Z,6.55555555556
2018-10-09T01:44:21.136Z,6.55555555556
2018-10-09T01:44:33.582Z,6.55555555556
2018-10-09T01:44:46.029Z,6.55555555556
2018-10-09T01:44:58.454Z,6.55555555556
2018-10-09T01:45:11.039Z,6.55555555556
2018-10-09T01:45:23.503Z,6.55555555556
2018-10-09T01:45:35.909Z,6.55555555556
2018-10-09T01:45:48.279Z,6.5
2018-10-09T01:46:00.657Z,6.55555555556
2018-10-09T01:46:13.308Z,6.55555555556
2018-10-09T01:46:25.853Z,6.55555555556
2018-10-09T01:46:38.290Z,6.55555555556
2018-10-09T01:46:50.680Z,6.5
2018-10-09T01:47:03.121Z,6.55555555556
2018-10-09T01:47:15.513Z,6.55555555556
2018-10-09T01:47:28.184Z,6.55555555556
2018-10-09T01:47:40.658Z,6.55555555556
2018-10-09T01:47:53.087Z,6.55555555556
2018-10-09T01:48:05.546Z,6.55555555556
2018-10-09T01:48:18.013Z,6.55555555556
2018-10-09T01:48:30.539Z,6.55555555556
2018-10-09T01:48:42.945Z,6.55555555556
2018-10-09T01:48:55.422Z,6.55555555556
2018-10-09T01:49:08.025Z,6.55555555556
2018-10-09T01:49:20.425Z,6.55555555556
2018-10-09T01:49:32.978Z,6.55555555556
2018-10-09T01:49:45.374Z,6.55555555556
2018-10-09T01:49:57.814Z,6.55555555556
2018-10-09T01:50:10.241Z,6.55555555556
2018-10-09T01:50:22.631Z,6.55555555556
2018-10-09T01:50:35.023Z,6.55555555556
2018-10-09T01:50:47.417Z,6.55555555556
2018-10-09T01:50:59.804Z,6.55555555556
2018-10-09T01:51:12.191Z,6.55555555556
2018-10-09T01:51:24.570Z,6.55555555556
2018-10-09T01:51:36.959Z,6.55555555556
2018-10-09T01:51:49.358Z,6.55555555556
2018-10-09T01:52:01.766Z,6.55555555556
2018-10-09T01:52:14.197Z,6.61111111111
2018-10-09T01:52:26.721Z,6.61111111111
2018-10-09T01:52:39.110Z,6.55555555556
2018-10-09T01:52:51.469Z,6.61111111111
2018-10-09T01:53:03.862Z,6.55555555556
2018-10-09T01:53:16.393Z,6.55555555556
2018-10-09T01:53:28.943Z,6.55555555556
2018-10-09T01:53:41.336Z,6.61111111111
2018-10-09T01:53:53.735Z,6.55555555556
2018-10-09T01:54:06.142Z,6.61111111111
2018-10-09T01:54:18.527Z,6.55555555556
2018-10-09T01:54:30.956Z,6.61111111111
2018-10-09T01:54:43.379Z,6.61111111111
2018-10-09T01:54:55.778Z,6.61111111111
2018-10-09T01:55:08.159Z,6.55555555556
2018-10-09T01:55:20.709Z,6.61111111111
2018-10-09T01:55:33.223Z,6.61111111111
2018-10-09T01:55:45.604Z,6.61111111111
2018-10-09T01:55:58.007Z,6.61111111111
2018-10-09T01:56:10.413Z,6.61111111111
2018-10-09T01:56:22.807Z,6.55555555556
2018-10-09T01:56:35.410Z,6.61111111111
2018-10-09T01:56:47.840Z,6.61111111111
2018-10-09T01:57:00.239Z,6.61111111111
2018-10-09T01:57:12.630Z,6.61111111111
2018-10-09T01:57:25.158Z,6.61111111111
2018-10-09T01:57:37.596Z,6.61111111111
2018-10-09T01:57:49.994Z,6.61111111111
2018-10-09T01:58:02.383Z,6.61111111111
2018-10-09T01:58:14.778Z,6.61111111111
2018-10-09T01:58:27.170Z,6.61111111111
2018-10-09T01:58:39.552Z,6.61111111111
2018-10-09T01:58:51.963Z,6.61111111111
2018-10-09T01:59:04.360Z,6.61111111111
2018-10-09T01:59:16.897Z,6.61111111111
2018-10-09T01:59:29.308Z,6.61111111111
2018-10-09T01:59:41.701Z,6.61111111111
2018-10-09T01:59:54.230Z,6.55555555556
2018-10-09T02:00:06.622Z,6.61111111111
2018-10-09T02:00:19.033Z,6.61111111111
2018-10-09T02:00:31.470Z,6.61111111111
2018-10-09T02:00:43.882Z,6.61111111111
2018-10-09T02:00:56.354Z,6.61111111111
2018-10-09T02:01:08.748Z,6.61111111111
2018-10-09T02:01:21.146Z,6.55555555556
2018-10-09T02:01:33.535Z,6.55555555556
2018-10-09T02:01:45.940Z,6.55555555556
2018-10-09T02:01:58.338Z,6.61111111111
2018-10-09T02:02:10.744Z,6.61111111111
2018-10-09T02:02:23.141Z,6.55555555556
2018-10-09T02:02:35.529Z,6.55555555556
2018-10-09T02:02:47.915Z,6.55555555556
2018-10-09T02:03:00.307Z,6.55555555556
2018-10-09T02:03:12.702Z,6.61111111111
2018-10-09T02:03:25.088Z,6.55555555556
2018-10-09T02:03:37.456Z,6.55555555556
2018-10-09T02:03:49.879Z,6.55555555556
2018-10-09T02:04:02.370Z,6.55555555556
2018-10-09T02:04:14.901Z,6.55555555556
2018-10-09T02:04:27.280Z,6.55555555556
2018-10-09T02:04:39.677Z,6.55555555556
2018-10-09T02:04:52.068Z,6.55555555556
2018-10-09T02:05:04.476Z,6.55555555556
2018-10-09T02:05:16.887Z,6.55555555556
2018-10-09T02:05:29.274Z,6.55555555556
2018-10-09T02:05:41.669Z,6.55555555556
2018-10-09T02:05:54.054Z,6.55555555556
2018-10-09T02:06:06.433Z,6.55555555556
2018-10-09T02:06:18.844Z,6.55555555556
2018-10-09T02:06:31.243Z,6.55555555556
2018-10-09T02:06:43.645Z,6.55555555556
2018-10-09T02:06:56.021Z,6.55555555556
2018-10-09T02:07:08.411Z,6.55555555556
2018-10-09T02:07:20.812Z,6.55555555556
2018-10-09T02:07:33.197Z,6.55555555556
2018-10-09T02:07:45.580Z,6.55555555556
2018-10-09T02:07:57.986Z,6.55555555556
2018-10-09T02:08:10.383Z,6.55555555556
2018-10-09T02:08:22.778Z,6.55555555556
2018-10-09T02:08:35.161Z,6.55555555556
2018-10-09T02:08:47.551Z,6.55555555556
2018-10-09T02:08:59.958Z,6.55555555556
2018-10-09T02:09:12.463Z,6.55555555556
2018-10-09T02:09:24.917Z,6.55555555556
2018-10-09T02:09:37.331Z,6.55555555556
2018-10-09T02:09:49.717Z,6.55555555556
2018-10-09T02:10:02.117Z,6.5
2018-10-09T02:10:14.504Z,6.55555555556
2018-10-09T02:10:26.888Z,6.5